Anaktuvuk Pass Airport Anaktuvuk Pass US
ICAO: PAKP
IATA:
Category: Medium
Scheduled Services:

Elevation: 2102 ft
TransAlt. 18000 ft.

Airport Communications:
AWOS 3:135.75
ANCHORAGE CNTR:124.6
CTAF:122.8
DEADHORSE RDO:122.15

PAKP Zoom In..

If you have problems with the map follow the link
https://www.worldairports.se/pages/airport.php?
ICAO=PAKP

Runways:

(A) RW 02 length 4800 ft width 100 ft
---- / hdg 17

(B) RW 20 length 4800 ft width 100 ft
---- / hdg 197

Location; PAKP
Day. 14 / Time. 21.08 Zulu
* Altimeter: 29.24
* Temperature: -23° c. 9.4°f.
* Wind from: 200° Speed 12 kn.
Dewpoint: -26° c.
Visibility: 3 Statute Miles.
Clouds: Overcast 2900 ft.
Conditions: Light Snow.

PAKP 142108Z AUTO 20012KT 3SM -SN OVC029 M23/M26 A2924 RMK AO2 P0000 FZRANO


Wind From 200°
Speed 12 kn.

 
 
jpsmedia.com for Web Design worldairports.se 2018   terms of use